sensor_id;sensor_type;location;lat;lon;timestamp;P1;durP1;ratioP1;P2;durP2;ratioP2
64986;SDS011;67903;52.108;9.358;2023-07-20T00:00:52;5.07;;;4.30;;
64986;SDS011;67903;52.108;9.358;2023-07-20T00:03:38;4.57;;;4.13;;
64986;SDS011;67903;52.108;9.358;2023-07-20T00:06:24;5.57;;;3.85;;
64986;SDS011;67903;52.108;9.358;2023-07-20T00:09:12;4.45;;;4.00;;
64986;SDS011;67903;52.108;9.358;2023-07-20T00:11:58;4.25;;;3.83;;
64986;SDS011;67903;52.108;9.358;2023-07-20T00:14:45;4.00;;;3.70;;
64986;SDS011;67903;52.108;9.358;2023-07-20T00:17:31;5.80;;;4.22;;
64986;SDS011;67903;52.108;9.358;2023-07-20T00:20:16;4.60;;;4.18;;
64986;SDS011;67903;52.108;9.358;2023-07-20T00:23:03;4.72;;;4.32;;
64986;SDS011;67903;52.108;9.358;2023-07-20T00:25:49;4.82;;;4.10;;
64986;SDS011;67903;52.108;9.358;2023-07-20T00:28:34;4.32;;;4.03;;
64986;SDS011;67903;52.108;9.358;2023-07-20T00:31:19;4.78;;;4.25;;
64986;SDS011;67903;52.108;9.358;2023-07-20T00:34:05;5.35;;;4.32;;
64986;SDS011;67903;52.108;9.358;2023-07-20T00:36:51;4.20;;;3.75;;
64986;SDS011;67903;52.108;9.358;2023-07-20T00:39:37;4.57;;;4.18;;
64986;SDS011;67903;52.108;9.358;2023-07-20T00:42:23;5.88;;;4.18;;
64986;SDS011;67903;52.108;9.358;2023-07-20T00:45:09;4.60;;;4.20;;
64986;SDS011;67903;52.108;9.358;2023-07-20T00:47:55;5.57;;;4.20;;
64986;SDS011;67903;52.108;9.358;2023-07-20T00:50:42;5.28;;;4.15;;
64986;SDS011;67903;52.108;9.358;2023-07-20T00:53:28;5.55;;;4.40;;
64986;SDS011;67903;52.108;9.358;2023-07-20T00:56:14;6.95;;;4.65;;
64986;SDS011;67903;52.108;9.358;2023-07-20T00:59:01;6.03;;;3.95;;
64986;SDS011;67903;52.108;9.358;2023-07-20T01:01:46;4.38;;;3.90;;
64986;SDS011;67903;52.108;9.358;2023-07-20T01:04:33;5.00;;;3.97;;
64986;SDS011;67903;52.108;9.358;2023-07-20T01:07:28;4.45;;;4.05;;
64986;SDS011;67903;52.108;9.358;2023-07-20T01:10:36;6.22;;;3.90;;
64986;SDS011;67903;52.108;9.358;2023-07-20T01:13:28;4.70;;;4.18;;
64986;SDS011;67903;52.108;9.358;2023-07-20T01:16:14;7.47;;;3.63;;
64986;SDS011;67903;52.108;9.358;2023-07-20T01:19:00;6.07;;;4.00;;
64986;SDS011;67903;52.108;9.358;2023-07-20T01:22:03;7.78;;;4.43;;
64986;SDS011;67903;52.108;9.358;2023-07-20T01:31:41;5.18;;;4.68;;
64986;SDS011;67903;52.108;9.358;2023-07-20T01:34:28;5.72;;;4.30;;
64986;SDS011;67903;52.108;9.358;2023-07-20T01:37:14;6.68;;;4.60;;
64986;SDS011;67903;52.108;9.358;2023-07-20T01:40:02;5.00;;;4.50;;
64986;SDS011;67903;52.108;9.358;2023-07-20T01:42:48;5.13;;;4.63;;
64986;SDS011;67903;52.108;9.358;2023-07-20T01:45:34;6.22;;;4.50;;
64986;SDS011;67903;52.108;9.358;2023-07-20T01:48:19;8.07;;;4.35;;
64986;SDS011;67903;52.108;9.358;2023-07-20T01:51:05;4.97;;;3.97;;
64986;SDS011;67903;52.108;9.358;2023-07-20T01:53:50;6.13;;;4.10;;
64986;SDS011;67903;52.108;9.358;2023-07-20T01:56:36;6.50;;;3.85;;
64986;SDS011;67903;52.108;9.358;2023-07-20T01:59:21;7.28;;;4.10;;
64986;SDS011;67903;52.108;9.358;2023-07-20T02:02:07;5.60;;;4.35;;
64986;SDS011;67903;52.108;9.358;2023-07-20T02:04:53;5.40;;;3.70;;
64986;SDS011;67903;52.108;9.358;2023-07-20T02:07:39;4.40;;;4.00;;
64986;SDS011;67903;52.108;9.358;2023-07-20T02:10:24;5.15;;;3.90;;
64986;SDS011;67903;52.108;9.358;2023-07-20T02:13:09;5.53;;;4.00;;
64986;SDS011;67903;52.108;9.358;2023-07-20T02:15:55;4.75;;;4.30;;
64986;SDS011;67903;52.108;9.358;2023-07-20T02:18:40;5.03;;;4.25;;
64986;SDS011;67903;52.108;9.358;2023-07-20T02:21:26;8.65;;;5.57;;
64986;SDS011;67903;52.108;9.358;2023-07-20T02:24:12;7.28;;;4.93;;
64986;SDS011;67903;52.108;9.358;2023-07-20T02:26:58;6.90;;;4.85;;
64986;SDS011;67903;52.108;9.358;2023-07-20T02:29:43;6.50;;;4.90;;
64986;SDS011;67903;52.108;9.358;2023-07-20T02:32:29;6.57;;;4.72;;
64986;SDS011;67903;52.108;9.358;2023-07-20T02:35:16;7.85;;;5.65;;
64986;SDS011;67903;52.108;9.358;2023-07-20T02:38:02;7.88;;;4.97;;
64986;SDS011;67903;52.108;9.358;2023-07-20T02:40:48;7.03;;;5.25;;
64986;SDS011;67903;52.108;9.358;2023-07-20T02:43:33;7.05;;;4.80;;
64986;SDS011;67903;52.108;9.358;2023-07-20T02:46:19;6.63;;;4.90;;
64986;SDS011;67903;52.108;9.358;2023-07-20T02:49:04;5.65;;;5.13;;
64986;SDS011;67903;52.108;9.358;2023-07-20T02:51:50;6.55;;;4.70;;
64986;SDS011;67903;52.108;9.358;2023-07-20T02:54:35;6.80;;;5.00;;
64986;SDS011;67903;52.108;9.358;2023-07-20T02:57:21;6.57;;;4.82;;
64986;SDS011;67903;52.108;9.358;2023-07-20T03:00:07;8.02;;;5.25;;
64986;SDS011;67903;52.108;9.358;2023-07-20T03:02:52;8.65;;;5.25;;
64986;SDS011;67903;52.108;9.358;2023-07-20T03:05:41;6.78;;;4.68;;
64986;SDS011;67903;52.108;9.358;2023-07-20T03:08:26;10.50;;;5.70;;
64986;SDS011;67903;52.108;9.358;2023-07-20T03:11:15;7.63;;;4.75;;
64986;SDS011;67903;52.108;9.358;2023-07-20T03:14:01;5.13;;;4.70;;
64986;SDS011;67903;52.108;9.358;2023-07-20T03:16:47;5.95;;;4.60;;
64986;SDS011;67903;52.108;9.358;2023-07-20T03:19:32;6.93;;;4.63;;
64986;SDS011;67903;52.108;9.358;2023-07-20T03:22:18;5.05;;;4.40;;
64986;SDS011;67903;52.108;9.358;2023-07-20T03:25:03;7.80;;;4.78;;
64986;SDS011;67903;52.108;9.358;2023-07-20T03:27:49;5.80;;;5.30;;
64986;SDS011;67903;52.108;9.358;2023-07-20T03:30:35;5.50;;;5.05;;
64986;SDS011;67903;52.108;9.358;2023-07-20T03:33:27;6.35;;;5.32;;
64986;SDS011;67903;52.108;9.358;2023-07-20T03:36:15;9.32;;;5.93;;
64986;SDS011;67903;52.108;9.358;2023-07-20T03:39:00;6.65;;;5.88;;
64986;SDS011;67903;52.108;9.358;2023-07-20T03:41:45;9.30;;;5.70;;
64986;SDS011;67903;52.108;9.358;2023-07-20T03:44:31;8.80;;;5.35;;
64986;SDS011;67903;52.108;9.358;2023-07-20T03:47:16;10.35;;;5.88;;
64986;SDS011;67903;52.108;9.358;2023-07-20T03:50:02;7.57;;;5.60;;
64986;SDS011;67903;52.108;9.358;2023-07-20T03:52:48;8.07;;;5.80;;
64986;SDS011;67903;52.108;9.358;2023-07-20T03:55:34;11.82;;;6.45;;
64986;SDS011;67903;52.108;9.358;2023-07-20T03:58:20;10.13;;;6.28;;
64986;SDS011;67903;52.108;9.358;2023-07-20T04:01:06;6.72;;;5.40;;
64986;SDS011;67903;52.108;9.358;2023-07-20T04:03:52;8.93;;;5.82;;
64986;SDS011;67903;52.108;9.358;2023-07-20T04:06:38;8.57;;;6.47;;
64986;SDS011;67903;52.108;9.358;2023-07-20T04:09:23;10.88;;;6.22;;
64986;SDS011;67903;52.108;9.358;2023-07-20T04:12:09;8.88;;;6.32;;
64986;SDS011;67903;52.108;9.358;2023-07-20T04:14:54;7.63;;;6.93;;
64986;SDS011;67903;52.108;9.358;2023-07-20T04:17:40;7.35;;;6.38;;
64986;SDS011;67903;52.108;9.358;2023-07-20T04:20:26;9.65;;;6.72;;
64986;SDS011;67903;52.108;9.358;2023-07-20T04:23:12;8.57;;;7.50;;
64986;SDS011;67903;52.108;9.358;2023-07-20T04:25:58;7.32;;;6.63;;
64986;SDS011;67903;52.108;9.358;2023-07-20T04:28:44;8.57;;;6.82;;
64986;SDS011;67903;52.108;9.358;2023-07-20T04:31:38;9.80;;;7.68;;
64986;SDS011;67903;52.108;9.358;2023-07-20T04:34:23;7.80;;;6.90;;
64986;SDS011;67903;52.108;9.358;2023-07-20T04:37:08;9.85;;;7.50;;
64986;SDS011;67903;52.108;9.358;2023-07-20T04:39:54;10.13;;;7.15;;
64986;SDS011;67903;52.108;9.358;2023-07-20T04:42:39;9.77;;;7.32;;
64986;SDS011;67903;52.108;9.358;2023-07-20T04:45:25;13.38;;;6.70;;
64986;SDS011;67903;52.108;9.358;2023-07-20T04:48:12;10.60;;;7.10;;
64986;SDS011;67903;52.108;9.358;2023-07-20T04:51:04;8.27;;;6.82;;
64986;SDS011;67903;52.108;9.358;2023-07-20T04:53:50;7.28;;;6.25;;
64986;SDS011;67903;52.108;9.358;2023-07-20T04:56:36;8.32;;;5.80;;
64986;SDS011;67903;52.108;9.358;2023-07-20T04:59:25;7.13;;;6.00;;
64986;SDS011;67903;52.108;9.358;2023-07-20T05:02:11;8.00;;;6.05;;
64986;SDS011;67903;52.108;9.358;2023-07-20T05:04:56;7.80;;;6.25;;
64986;SDS011;67903;52.108;9.358;2023-07-20T05:07:41;6.78;;;6.15;;
64986;SDS011;67903;52.108;9.358;2023-07-20T05:10:27;5.43;;;5.00;;
64986;SDS011;67903;52.108;9.358;2023-07-20T05:13:13;6.68;;;5.38;;
64986;SDS011;67903;52.108;9.358;2023-07-20T05:15:58;6.93;;;5.53;;
64986;SDS011;67903;52.108;9.358;2023-07-20T05:18:44;6.03;;;5.53;;
64986;SDS011;67903;52.108;9.358;2023-07-20T05:21:30;6.20;;;5.50;;
64986;SDS011;67903;52.108;9.358;2023-07-20T05:24:16;8.20;;;5.97;;
64986;SDS011;67903;52.108;9.358;2023-07-20T05:27:01;6.85;;;6.22;;
64986;SDS011;67903;52.108;9.358;2023-07-20T05:29:48;6.80;;;6.07;;
64986;SDS011;67903;52.108;9.358;2023-07-20T05:32:33;7.15;;;6.55;;
64986;SDS011;67903;52.108;9.358;2023-07-20T05:35:19;6.50;;;5.97;;
64986;SDS011;67903;52.108;9.358;2023-07-20T05:38:04;7.88;;;7.07;;
64986;SDS011;67903;52.108;9.358;2023-07-20T05:40:51;6.75;;;6.25;;
64986;SDS011;67903;52.108;9.358;2023-07-20T05:43:36;7.25;;;6.65;;
64986;SDS011;67903;52.108;9.358;2023-07-20T05:46:22;7.40;;;6.80;;
64986;SDS011;67903;52.108;9.358;2023-07-20T05:49:10;6.55;;;6.05;;
64986;SDS011;67903;52.108;9.358;2023-07-20T05:51:56;6.38;;;5.82;;
64986;SDS011;67903;52.108;9.358;2023-07-20T05:54:41;5.85;;;5.35;;
64986;SDS011;67903;52.108;9.358;2023-07-20T05:57:26;7.13;;;6.45;;
64986;SDS011;67903;52.108;9.358;2023-07-20T06:00:12;5.85;;;5.35;;
64986;SDS011;67903;52.108;9.358;2023-07-20T06:03:00;6.72;;;6.22;;
64986;SDS011;67903;52.108;9.358;2023-07-20T06:05:45;8.52;;;7.82;;
64986;SDS011;67903;52.108;9.358;2023-07-20T06:08:31;8.57;;;7.72;;
64986;SDS011;67903;52.108;9.358;2023-07-20T06:11:16;8.00;;;7.30;;
64986;SDS011;67903;52.108;9.358;2023-07-20T06:14:02;7.75;;;7.15;;
64986;SDS011;67903;52.108;9.358;2023-07-20T06:16:47;7.70;;;6.90;;
64986;SDS011;67903;52.108;9.358;2023-07-20T06:19:33;8.07;;;6.97;;
64986;SDS011;67903;52.108;9.358;2023-07-20T06:22:18;7.80;;;7.00;;
64986;SDS011;67903;52.108;9.358;2023-07-20T06:25:03;7.63;;;6.93;;
64986;SDS011;67903;52.108;9.358;2023-07-20T06:27:49;7.38;;;6.68;;
64986;SDS011;67903;52.108;9.358;2023-07-20T06:30:38;7.20;;;6.60;;
64986;SDS011;67903;52.108;9.358;2023-07-20T06:33:24;8.60;;;6.85;;
64986;SDS011;67903;52.108;9.358;2023-07-20T06:36:10;7.63;;;6.80;;
64986;SDS011;67903;52.108;9.358;2023-07-20T06:38:56;7.53;;;6.93;;
64986;SDS011;67903;52.108;9.358;2023-07-20T06:41:44;7.43;;;6.78;;
64986;SDS011;67903;52.108;9.358;2023-07-20T06:44:30;7.60;;;6.90;;
64986;SDS011;67903;52.108;9.358;2023-07-20T06:47:16;7.30;;;6.70;;
64986;SDS011;67903;52.108;9.358;2023-07-20T06:50:01;7.65;;;7.05;;
64986;SDS011;67903;52.108;9.358;2023-07-20T06:52:47;8.68;;;7.90;;
64986;SDS011;67903;52.108;9.358;2023-07-20T06:55:33;5.22;;;4.82;;
64986;SDS011;67903;52.108;9.358;2023-07-20T06:58:26;5.03;;;4.63;;
64986;SDS011;67903;52.108;9.358;2023-07-20T07:01:11;4.75;;;4.35;;
64986;SDS011;67903;52.108;9.358;2023-07-20T07:03:57;6.00;;;5.50;;
64986;SDS011;67903;52.108;9.358;2023-07-20T07:06:42;5.65;;;5.25;;
64986;SDS011;67903;52.108;9.358;2023-07-20T07:09:29;8.02;;;6.45;;
64986;SDS011;67903;52.108;9.358;2023-07-20T07:12:15;9.65;;;7.10;;
64986;SDS011;67903;52.108;9.358;2023-07-20T07:15:00;7.00;;;6.45;;
64986;SDS011;67903;52.108;9.358;2023-07-20T07:17:47;7.57;;;6.88;;
64986;SDS011;67903;52.108;9.358;2023-07-20T07:20:33;6.85;;;6.25;;
64986;SDS011;67903;52.108;9.358;2023-07-20T07:23:18;6.47;;;5.90;;
64986;SDS011;67903;52.108;9.358;2023-07-20T07:26:03;5.47;;;4.95;;
64986;SDS011;67903;52.108;9.358;2023-07-20T07:28:49;4.60;;;4.20;;
64986;SDS011;67903;52.108;9.358;2023-07-20T07:31:34;5.07;;;4.63;;
64986;SDS011;67903;52.108;9.358;2023-07-20T07:34:21;5.05;;;4.65;;
64986;SDS011;67903;52.108;9.358;2023-07-20T07:37:07;3.28;;;2.75;;
64986;SDS011;67903;52.108;9.358;2023-07-20T07:39:52;3.15;;;2.85;;
64986;SDS011;67903;52.108;9.358;2023-07-20T07:42:37;5.47;;;3.30;;
64986;SDS011;67903;52.108;9.358;2023-07-20T07:45:23;5.30;;;3.13;;
64986;SDS011;67903;52.108;9.358;2023-07-20T07:48:08;2.80;;;2.60;;
64986;SDS011;67903;52.108;9.358;2023-07-20T07:50:56;3.40;;;2.97;;
64986;SDS011;67903;52.108;9.358;2023-07-20T07:53:41;3.72;;;3.42;;
64986;SDS011;67903;52.108;9.358;2023-07-20T07:56:28;3.55;;;3.10;;
64986;SDS011;67903;52.108;9.358;2023-07-20T07:59:14;2.70;;;2.50;;
64986;SDS011;67903;52.108;9.358;2023-07-20T08:02:00;2.95;;;2.75;;
64986;SDS011;67903;52.108;9.358;2023-07-20T08:04:45;3.90;;;3.00;;
64986;SDS011;67903;52.108;9.358;2023-07-20T08:07:32;1.90;;;1.80;;
64986;SDS011;67903;52.108;9.358;2023-07-20T08:10:17;2.25;;;2.15;;
64986;SDS011;67903;52.108;9.358;2023-07-20T08:13:03;1.73;;;1.63;;
64986;SDS011;67903;52.108;9.358;2023-07-20T08:15:49;2.00;;;1.80;;
64986;SDS011;67903;52.108;9.358;2023-07-20T08:18:39;2.85;;;1.88;;
64986;SDS011;67903;52.108;9.358;2023-07-20T08:21:25;2.05;;;1.60;;
64986;SDS011;67903;52.108;9.358;2023-07-20T08:24:11;3.08;;;1.27;;
64986;SDS011;67903;52.108;9.358;2023-07-20T08:26:57;2.95;;;1.70;;
64986;SDS011;67903;52.108;9.358;2023-07-20T08:29:42;1.85;;;1.52;;
64986;SDS011;67903;52.108;9.358;2023-07-20T08:32:27;1.83;;;1.60;;
64986;SDS011;67903;52.108;9.358;2023-07-20T08:35:13;1.83;;;1.60;;
64986;SDS011;67903;52.108;9.358;2023-07-20T08:38:00;2.03;;;1.92;;
64986;SDS011;67903;52.108;9.358;2023-07-20T08:40:48;1.70;;;1.50;;
64986;SDS011;67903;52.108;9.358;2023-07-20T08:43:33;7.97;;;5.43;;
64986;SDS011;67903;52.108;9.358;2023-07-20T08:46:21;1.80;;;1.60;;
64986;SDS011;67903;52.108;9.358;2023-07-20T08:49:08;6.00;;;4.55;;
64986;SDS011;67903;52.108;9.358;2023-07-20T08:51:54;2.40;;;1.52;;
64986;SDS011;67903;52.108;9.358;2023-07-20T08:54:40;2.08;;;1.60;;
64986;SDS011;67903;52.108;9.358;2023-07-20T08:57:26;1.70;;;1.60;;
64986;SDS011;67903;52.108;9.358;2023-07-20T09:00:12;1.67;;;1.58;;
64986;SDS011;67903;52.108;9.358;2023-07-20T09:02:59;3.35;;;1.98;;
64986;SDS011;67903;52.108;9.358;2023-07-20T09:05:48;1.98;;;1.40;;
64986;SDS011;67903;52.108;9.358;2023-07-20T09:08:37;1.45;;;1.15;;
64986;SDS011;67903;52.108;9.358;2023-07-20T09:11:23;2.83;;;1.25;;
64986;SDS011;67903;52.108;9.358;2023-07-20T09:14:10;3.05;;;1.80;;
64986;SDS011;67903;52.108;9.358;2023-07-20T09:16:56;2.15;;;1.90;;
64986;SDS011;67903;52.108;9.358;2023-07-20T09:19:46;1.60;;;1.50;;
64986;SDS011;67903;52.108;9.358;2023-07-20T09:22:32;4.18;;;2.05;;
64986;SDS011;67903;52.108;9.358;2023-07-20T09:25:18;2.95;;;1.48;;
64986;SDS011;67903;52.108;9.358;2023-07-20T09:28:09;2.47;;;1.40;;
64986;SDS011;67903;52.108;9.358;2023-07-20T09:30:56;1.58;;;1.45;;
64986;SDS011;67903;52.108;9.358;2023-07-20T09:33:42;1.38;;;1.27;;
64986;SDS011;67903;52.108;9.358;2023-07-20T09:36:45;1.83;;;1.52;;
64986;SDS011;67903;52.108;9.358;2023-07-20T09:39:41;2.92;;;2.60;;
64986;SDS011;67903;52.108;9.358;2023-07-20T09:42:49;1.65;;;1.25;;
64986;SDS011;67903;52.108;9.358;2023-07-20T09:45:40;2.90;;;1.10;;
64986;SDS011;67903;52.108;9.358;2023-07-20T09:48:29;1.08;;;1.00;;
64986;SDS011;67903;52.108;9.358;2023-07-20T09:51:18;2.55;;;1.38;;
64986;SDS011;67903;52.108;9.358;2023-07-20T09:54:06;3.90;;;2.38;;
64986;SDS011;67903;52.108;9.358;2023-07-20T09:56:52;1.35;;;1.00;;
64986;SDS011;67903;52.108;9.358;2023-07-20T09:59:38;1.27;;;0.80;;
64986;SDS011;67903;52.108;9.358;2023-07-20T10:02:30;1.65;;;1.10;;
64986;SDS011;67903;52.108;9.358;2023-07-20T10:05:18;1.25;;;0.90;;
64986;SDS011;67903;52.108;9.358;2023-07-20T10:08:04;2.17;;;1.10;;
64986;SDS011;67903;52.108;9.358;2023-07-20T10:10:59;0.90;;;0.90;;
64986;SDS011;67903;52.108;9.358;2023-07-20T10:13:47;0.70;;;0.70;;
64986;SDS011;67903;52.108;9.358;2023-07-20T10:16:42;2.33;;;1.00;;
64986;SDS011;67903;52.108;9.358;2023-07-20T10:19:34;1.92;;;0.95;;
64986;SDS011;67903;52.108;9.358;2023-07-20T10:22:35;1.23;;;1.08;;
64986;SDS011;67903;52.108;9.358;2023-07-20T10:25:26;1.20;;;1.10;;
64986;SDS011;67903;52.108;9.358;2023-07-20T10:28:13;1.13;;;0.98;;
64986;SDS011;67903;52.108;9.358;2023-07-20T10:30:59;0.88;;;0.73;;
64986;SDS011;67903;52.108;9.358;2023-07-20T10:33:45;1.33;;;0.90;;
64986;SDS011;67903;52.108;9.358;2023-07-20T10:36:31;3.08;;;1.10;;
64986;SDS011;67903;52.108;9.358;2023-07-20T10:39:50;2.28;;;1.05;;
64986;SDS011;67903;52.108;9.358;2023-07-20T10:42:32;2.03;;;1.20;;
64986;SDS011;67903;52.108;9.358;2023-07-20T10:45:18;1.13;;;0.70;;
64986;SDS011;67903;52.108;9.358;2023-07-20T10:48:25;4.65;;;3.35;;
64986;SDS011;67903;52.108;9.358;2023-07-20T10:51:13;1.45;;;0.98;;
64986;SDS011;67903;52.108;9.358;2023-07-20T10:54:07;2.17;;;1.75;;
64986;SDS011;67903;52.108;9.358;2023-07-20T10:56:58;1.63;;;1.20;;
64986;SDS011;67903;52.108;9.358;2023-07-20T11:00:08;1.40;;;0.88;;
64986;SDS011;67903;52.108;9.358;2023-07-20T11:02:58;1.25;;;1.05;;
64986;SDS011;67903;52.108;9.358;2023-07-20T11:05:44;1.10;;;1.00;;
64986;SDS011;67903;52.108;9.358;2023-07-20T11:08:42;1.92;;;0.70;;
64986;SDS011;67903;52.108;9.358;2023-07-20T11:11:32;1.80;;;0.80;;
64986;SDS011;67903;52.108;9.358;2023-07-20T11:17:12;0.80;;;0.80;;
64986;SDS011;67903;52.108;9.358;2023-07-20T11:20:00;1.20;;;0.70;;
64986;SDS011;67903;52.108;9.358;2023-07-20T11:22:50;0.73;;;0.73;;
64986;SDS011;67903;52.108;9.358;2023-07-20T11:25:39;2.40;;;0.90;;
64986;SDS011;67903;52.108;9.358;2023-07-20T11:28:25;1.60;;;1.02;;
64986;SDS011;67903;52.108;9.358;2023-07-20T11:31:10;1.42;;;0.90;;
64986;SDS011;67903;52.108;9.358;2023-07-20T11:34:01;1.20;;;0.60;;
64986;SDS011;67903;52.108;9.358;2023-07-20T11:36:50;0.73;;;0.55;;
64986;SDS011;67903;52.108;9.358;2023-07-20T11:39:40;1.73;;;0.75;;
64986;SDS011;67903;52.108;9.358;2023-07-20T11:42:25;0.70;;;0.70;;
64986;SDS011;67903;52.108;9.358;2023-07-20T11:45:14;1.67;;;0.80;;
64986;SDS011;67903;52.108;9.358;2023-07-20T11:47:59;1.08;;;0.80;;
64986;SDS011;67903;52.108;9.358;2023-07-20T11:50:45;0.70;;;0.70;;
64986;SDS011;67903;52.108;9.358;2023-07-20T11:53:31;1.83;;;0.93;;
64986;SDS011;67903;52.108;9.358;2023-07-20T11:56:20;0.50;;;0.50;;
64986;SDS011;67903;52.108;9.358;2023-07-20T11:59:06;0.95;;;0.80;;
64986;SDS011;67903;52.108;9.358;2023-07-20T12:01:52;1.75;;;0.70;;
64986;SDS011;67903;52.108;9.358;2023-07-20T12:04:38;1.08;;;0.90;;
64986;SDS011;67903;52.108;9.358;2023-07-20T12:07:25;1.50;;;0.93;;
64986;SDS011;67903;52.108;9.358;2023-07-20T12:10:13;1.30;;;0.90;;
64986;SDS011;67903;52.108;9.358;2023-07-20T12:13:02;0.80;;;0.80;;
64986;SDS011;67903;52.108;9.358;2023-07-20T12:15:52;0.77;;;0.77;;
64986;SDS011;67903;52.108;9.358;2023-07-20T12:18:39;1.65;;;0.93;;
64986;SDS011;67903;52.108;9.358;2023-07-20T12:21:29;1.40;;;0.80;;
64986;SDS011;67903;52.108;9.358;2023-07-20T12:24:15;1.80;;;1.00;;
64986;SDS011;67903;52.108;9.358;2023-07-20T12:27:03;0.73;;;0.70;;
64986;SDS011;67903;52.108;9.358;2023-07-20T12:29:48;1.85;;;0.70;;
64986;SDS011;67903;52.108;9.358;2023-07-20T12:32:34;1.23;;;0.98;;
64986;SDS011;67903;52.108;9.358;2023-07-20T12:35:19;1.77;;;1.10;;
64986;SDS011;67903;52.108;9.358;2023-07-20T12:38:05;0.85;;;0.70;;
64986;SDS011;67903;52.108;9.358;2023-07-20T12:40:51;2.72;;;1.10;;
64986;SDS011;67903;52.108;9.358;2023-07-20T12:43:37;1.17;;;0.98;;
64986;SDS011;67903;52.108;9.358;2023-07-20T12:46:22;1.17;;;0.90;;
64986;SDS011;67903;52.108;9.358;2023-07-20T12:49:09;2.70;;;1.35;;
64986;SDS011;67903;52.108;9.358;2023-07-20T12:51:54;2.38;;;1.20;;
64986;SDS011;67903;52.108;9.358;2023-07-20T12:54:41;0.80;;;0.70;;
64986;SDS011;67903;52.108;9.358;2023-07-20T12:57:26;1.73;;;0.80;;
64986;SDS011;67903;52.108;9.358;2023-07-20T13:00:13;1.23;;;0.80;;
64986;SDS011;67903;52.108;9.358;2023-07-20T13:03:00;0.90;;;0.85;;
64986;SDS011;67903;52.108;9.358;2023-07-20T13:05:53;3.03;;;1.00;;
64986;SDS011;67903;52.108;9.358;2023-07-20T13:08:41;2.10;;;1.08;;
64986;SDS011;67903;52.108;9.358;2023-07-20T13:11:27;1.02;;;0.93;;
64986;SDS011;67903;52.108;9.358;2023-07-20T13:14:13;1.98;;;1.40;;
64986;SDS011;67903;52.108;9.358;2023-07-20T13:16:58;1.63;;;0.90;;
64986;SDS011;67903;52.108;9.358;2023-07-20T13:19:44;0.80;;;0.80;;
64986;SDS011;67903;52.108;9.358;2023-07-20T13:22:29;1.00;;;0.90;;
64986;SDS011;67903;52.108;9.358;2023-07-20T13:25:15;0.80;;;0.80;;
64986;SDS011;67903;52.108;9.358;2023-07-20T13:28:02;0.75;;;0.73;;
64986;SDS011;67903;52.108;9.358;2023-07-20T13:30:48;1.65;;;1.08;;
64986;SDS011;67903;52.108;9.358;2023-07-20T13:33:34;2.03;;;0.80;;
64986;SDS011;67903;52.108;9.358;2023-07-20T13:36:23;1.35;;;0.98;;
64986;SDS011;67903;52.108;9.358;2023-07-20T13:39:09;3.95;;;1.85;;
64986;SDS011;67903;52.108;9.358;2023-07-20T13:41:55;1.67;;;0.82;;
64986;SDS011;67903;52.108;9.358;2023-07-20T13:44:40;2.30;;;1.00;;
64986;SDS011;67903;52.108;9.358;2023-07-20T13:47:26;2.03;;;1.20;;
64986;SDS011;67903;52.108;9.358;2023-07-20T13:50:13;0.70;;;0.70;;
64986;SDS011;67903;52.108;9.358;2023-07-20T13:53:10;1.25;;;0.80;;
64986;SDS011;67903;52.108;9.358;2023-07-20T13:56:00;1.40;;;0.82;;
64986;SDS011;67903;52.108;9.358;2023-07-20T13:58:48;0.90;;;0.90;;
64986;SDS011;67903;52.108;9.358;2023-07-20T14:01:34;0.80;;;0.80;;
64986;SDS011;67903;52.108;9.358;2023-07-20T14:04:22;1.55;;;0.90;;
64986;SDS011;67903;52.108;9.358;2023-07-20T14:07:08;1.90;;;1.00;;
64986;SDS011;67903;52.108;9.358;2023-07-20T14:09:54;0.93;;;0.80;;
64986;SDS011;67903;52.108;9.358;2023-07-20T14:12:43;1.00;;;0.90;;
64986;SDS011;67903;52.108;9.358;2023-07-20T14:15:29;1.20;;;0.90;;
64986;SDS011;67903;52.108;9.358;2023-07-20T14:18:16;2.13;;;1.13;;
64986;SDS011;67903;52.108;9.358;2023-07-20T14:21:04;3.25;;;1.42;;
64986;SDS011;67903;52.108;9.358;2023-07-20T14:23:53;2.08;;;1.00;;
64986;SDS011;67903;52.108;9.358;2023-07-20T14:26:39;2.72;;;1.25;;
64986;SDS011;67903;52.108;9.358;2023-07-20T14:29:28;2.00;;;1.10;;
64986;SDS011;67903;52.108;9.358;2023-07-20T14:32:16;2.63;;;1.05;;
64986;SDS011;67903;52.108;9.358;2023-07-20T14:35:02;1.10;;;1.00;;
64986;SDS011;67903;52.108;9.358;2023-07-20T14:37:49;2.67;;;1.10;;
64986;SDS011;67903;52.108;9.358;2023-07-20T14:40:35;1.45;;;1.30;;
64986;SDS011;67903;52.108;9.358;2023-07-20T14:43:20;2.08;;;1.10;;
64986;SDS011;67903;52.108;9.358;2023-07-20T14:46:06;1.40;;;1.10;;
64986;SDS011;67903;52.108;9.358;2023-07-20T14:48:51;1.52;;;0.93;;
64986;SDS011;67903;52.108;9.358;2023-07-20T14:51:37;1.25;;;1.15;;
64986;SDS011;67903;52.108;9.358;2023-07-20T14:54:28;2.55;;;1.10;;
64986;SDS011;67903;52.108;9.358;2023-07-20T14:57:13;1.77;;;1.02;;
64986;SDS011;67903;52.108;9.358;2023-07-20T15:00:00;2.72;;;1.20;;
64986;SDS011;67903;52.108;9.358;2023-07-20T15:02:45;2.50;;;1.20;;
64986;SDS011;67903;52.108;9.358;2023-07-20T15:05:31;1.17;;;1.08;;
64986;SDS011;67903;52.108;9.358;2023-07-20T15:08:17;1.40;;;1.30;;
64986;SDS011;67903;52.108;9.358;2023-07-20T15:11:03;2.13;;;1.27;;
64986;SDS011;67903;52.108;9.358;2023-07-20T15:13:49;1.42;;;1.20;;
64986;SDS011;67903;52.108;9.358;2023-07-20T15:16:34;2.10;;;1.30;;
64986;SDS011;67903;52.108;9.358;2023-07-20T15:19:22;1.85;;;1.40;;
64986;SDS011;67903;52.108;9.358;2023-07-20T15:22:07;1.38;;;1.27;;
64986;SDS011;67903;52.108;9.358;2023-07-20T15:24:54;2.95;;;1.40;;
64986;SDS011;67903;52.108;9.358;2023-07-20T15:27:39;1.35;;;1.25;;
64986;SDS011;67903;52.108;9.358;2023-07-20T15:30:34;2.75;;;1.70;;
64986;SDS011;67903;52.108;9.358;2023-07-20T15:33:22;2.50;;;2.00;;
64986;SDS011;67903;52.108;9.358;2023-07-20T15:36:11;2.53;;;1.83;;
64986;SDS011;67903;52.108;9.358;2023-07-20T15:38:56;1.70;;;1.60;;
64986;SDS011;67903;52.108;9.358;2023-07-20T15:41:42;1.80;;;1.70;;
64986;SDS011;67903;52.108;9.358;2023-07-20T15:44:28;2.65;;;1.90;;
64986;SDS011;67903;52.108;9.358;2023-07-20T15:47:13;1.50;;;1.40;;
64986;SDS011;67903;52.108;9.358;2023-07-20T15:49:59;1.77;;;1.50;;
64986;SDS011;67903;52.108;9.358;2023-07-20T15:52:45;2.33;;;1.30;;
64986;SDS011;67903;52.108;9.358;2023-07-20T15:55:30;3.03;;;1.20;;
64986;SDS011;67903;52.108;9.358;2023-07-20T15:58:16;2.05;;;1.10;;
64986;SDS011;67903;52.108;9.358;2023-07-20T16:01:01;1.55;;;1.10;;
64986;SDS011;67903;52.108;9.358;2023-07-20T16:03:47;2.17;;;1.10;;
64986;SDS011;67903;52.108;9.358;2023-07-20T16:06:32;2.88;;;1.30;;
64986;SDS011;67903;52.108;9.358;2023-07-20T16:09:20;1.85;;;1.40;;
64986;SDS011;67903;52.108;9.358;2023-07-20T16:12:07;1.30;;;1.20;;
64986;SDS011;67903;52.108;9.358;2023-07-20T16:14:53;1.58;;;1.48;;
64986;SDS011;67903;52.108;9.358;2023-07-20T16:17:42;3.10;;;1.85;;
64986;SDS011;67903;52.108;9.358;2023-07-20T16:20:27;3.47;;;2.28;;
64986;SDS011;67903;52.108;9.358;2023-07-20T16:23:13;2.00;;;1.80;;
64986;SDS011;67903;52.108;9.358;2023-07-20T16:25:59;1.70;;;1.60;;
64986;SDS011;67903;52.108;9.358;2023-07-20T16:28:44;2.22;;;1.30;;
64986;SDS011;67903;52.108;9.358;2023-07-20T16:31:30;1.50;;;1.40;;
64986;SDS011;67903;52.108;9.358;2023-07-20T16:34:15;1.48;;;1.38;;
64986;SDS011;67903;52.108;9.358;2023-07-20T16:37:01;1.35;;;1.25;;
64986;SDS011;67903;52.108;9.358;2023-07-20T16:39:51;2.00;;;1.45;;
64986;SDS011;67903;52.108;9.358;2023-07-20T16:42:36;1.40;;;1.30;;
64986;SDS011;67903;52.108;9.358;2023-07-20T16:45:25;2.25;;;1.30;;
64986;SDS011;67903;52.108;9.358;2023-07-20T16:48:11;1.55;;;1.40;;
64986;SDS011;67903;52.108;9.358;2023-07-20T16:50:59;1.98;;;1.35;;
64986;SDS011;67903;52.108;9.358;2023-07-20T16:53:46;2.67;;;1.38;;
64986;SDS011;67903;52.108;9.358;2023-07-20T16:56:31;2.03;;;1.23;;